Hub


Voltar

 INFORMAÇÕES METEOROLÓGICAS

METAR FOR K77S


ADDS - METARS form results

(0747 UTC 25 August 2019)
Data provider http://aviationweather.gov/metar/data/
 
METAR text: K77S 250735Z AUTO 22004KT 10SM 17/14 A3002 RMK A01
Conditions at: K77S observed 0735 UTC 25 August 2019
Temperature: 17.0°C (63°F)
Dewpoint: 14.0°C (57°F) [RH = 82%]
Pressure (altimeter): 30.02 inches Hg (1016.7 mb)
Winds: from the SW (220 degrees) at 5 MPH (4 knots; 2.1 m/s)
Visibility: 10 or more miles (16+ km)
Ceiling: unknown
Clouds: missing
Weather: automated observation with no human augmentation;
there may or may not be significant weather present at this time

METAR text: K77S 250715Z AUTO 00000KT 10SM FEW050 17/14 A3002 RMK A01
Conditions at: K77S observed 0715 UTC 25 August 2019
Temperature: 17.0°C (63°F)
Dewpoint: 14.0°C (57°F) [RH = 82%]
Pressure (altimeter): 30.02 inches Hg (1016.7 mb)
Winds: calm
Visibility: 10 or more miles (16+ km)
Ceiling: at least 12,000 feet AGL
Clouds: few clouds at 5000 feet AGL
Weather: automated observation with no human augmentation;
there may or may not be significant weather present at this time

METAR text: K77S 250655Z AUTO 00000KT 10SM CLR 18/15 A3002 RMK A01
Conditions at: K77S observed 0655 UTC 25 August 2019
Temperature: 18.0°C (64°F)
Dewpoint: 15.0°C (59°F) [RH = 83%]
Pressure (altimeter): 30.02 inches Hg (1016.7 mb)
Winds: calm
Visibility: 10 or more miles (16+ km)
Ceiling: at least 12,000 feet AGL
Clouds: sky clear below 12,000 feet AGL
Weather: automated observation with no human augmentation;
there may or may not be significant weather present at this time


 MAPA DO AEROPORTO


 INFORMAÇÕES DA PISTA

Pista 15 Tamanho da pista 3101 ft Largura da pista 60 ft
Elevação da pista 538 ft Ranhura da pista 0 ft Proa da pista 174
Pista 33 Tamanho da pista 3101 ft Largura da pista 60 ft
Elevação da pista 536 ft Ranhura da pista 0 ft Proa da pista 354

 FREQUÊNCIAS DO AEROPORTO

Tipo UNIC Nome CTAF/UNICO Frequência 122.7 MHZ

 AUXÍLIOS DE NAVEGAÇÃO PRÓXIMOS AO AEROPORTO